createdAt,value
2019-01-23T00:04:16.323Z,21.90
2019-01-23T00:06:56.864Z,23.57
2019-01-23T00:09:38.837Z,23.60
2019-01-23T00:12:20.295Z,24.17
2019-01-23T00:15:02.130Z,23.90
2019-01-23T00:17:42.522Z,22.67
2019-01-23T00:20:23.363Z,23.73
2019-01-23T00:23:04.388Z,22.60
2019-01-23T00:25:45.669Z,23.10
2019-01-23T00:28:26.450Z,22.10
2019-01-23T00:31:08.030Z,21.80
2019-01-23T00:33:48.885Z,23.07
2019-01-23T00:39:18.278Z,22.07
2019-01-23T00:41:59.350Z,23.20
2019-01-23T00:44:41.922Z,22.17
2019-01-23T00:50:07.608Z,22.40
2019-01-23T00:52:48.858Z,23.03
2019-01-23T00:55:31.599Z,23.20
2019-01-23T01:00:58.817Z,23.17
2019-01-23T01:03:39.351Z,22.97
2019-01-23T01:06:20.357Z,21.13
2019-01-23T01:09:00.899Z,22.07
2019-01-23T01:11:42.733Z,23.13
2019-01-23T01:14:23.677Z,22.30
2019-01-23T01:17:04.557Z,21.73
2019-01-23T01:19:45.128Z,21.70
2019-01-23T01:22:26.983Z,20.77
2019-01-23T01:25:10.486Z,23.07
2019-01-23T01:27:51.185Z,21.30
2019-01-23T01:30:35.080Z,21.67
2019-01-23T01:36:00.163Z,22.73
2019-01-23T01:38:41.200Z,22.47
2019-01-23T01:41:21.886Z,21.33
2019-01-23T01:44:02.381Z,22.37
2019-01-23T01:46:43.677Z,21.03
2019-01-23T01:52:12.543Z,20.93
2019-01-23T01:54:53.413Z,21.17
2019-01-23T01:57:34.402Z,21.60
2019-01-23T02:00:15.163Z,21.47
2019-01-23T02:02:56.272Z,21.17
2019-01-23T02:05:37.168Z,22.40
2019-01-23T02:08:19.195Z,20.70
2019-01-23T02:11:00.470Z,20.43
2019-01-23T02:13:41.265Z,21.90
2019-01-23T02:16:23.895Z,21.20
2019-01-23T02:19:05.185Z,21.47
2019-01-23T02:21:46.066Z,20.43
2019-01-23T02:24:26.913Z,21.17
2019-01-23T02:27:07.772Z,20.73
2019-01-23T02:32:32.990Z,21.43
2019-01-23T02:35:13.470Z,21.23
2019-01-23T02:37:54.355Z,20.80
2019-01-23T02:40:36.445Z,21.10
2019-01-23T02:46:08.959Z,20.80
2019-01-23T02:51:34.500Z,21.10
2019-01-23T02:54:15.027Z,20.53
2019-01-23T02:56:56.375Z,20.60
2019-01-23T02:59:37.024Z,21.37
2019-01-23T03:02:17.452Z,20.33
2019-01-23T03:04:58.142Z,20.43
2019-01-23T03:07:39.140Z,20.43
2019-01-23T03:10:19.973Z,20.63
2019-01-23T03:13:02.515Z,21.23
2019-01-23T03:18:26.526Z,21.10
2019-01-23T03:21:07.308Z,21.30
2019-01-23T03:23:47.897Z,21.03
2019-01-23T03:26:28.843Z,22.73
2019-01-23T03:31:57.304Z,23.60
2019-01-23T03:34:39.687Z,23.53
2019-01-23T03:37:20.653Z,23.53
2019-01-23T03:42:47.251Z,22.50
2019-01-23T03:48:14.300Z,23.67
2019-01-23T03:50:55.179Z,23.50
2019-01-23T03:53:35.863Z,24.13
2019-01-23T03:56:17.061Z,23.17
2019-01-23T03:58:57.693Z,22.83
2019-01-23T04:01:38.036Z,22.60
2019-01-23T04:07:05.014Z,22.10
2019-01-23T04:09:47.530Z,24.20
2019-01-23T04:12:28.747Z,24.23
2019-01-23T04:15:10.091Z,25.47
2019-01-23T04:17:50.916Z,24.53
2019-01-23T04:20:31.545Z,26.27
2019-01-23T04:23:12.087Z,24.20
2019-01-23T04:28:37.779Z,26.77
2019-01-23T04:31:18.567Z,26.93
2019-01-23T04:33:59.144Z,25.80
2019-01-23T04:36:40.162Z,27.50
2019-01-23T04:39:20.609Z,27.57
2019-01-23T04:42:01.744Z,27.37
2019-01-23T04:44:42.471Z,24.97
2019-01-23T04:47:23.432Z,26.30
2019-01-23T04:55:41.126Z,28.90
2019-01-23T04:58:21.852Z,26.67
2019-01-23T05:01:02.485Z,27.10
2019-01-23T05:03:43.448Z,27.27
2019-01-23T05:06:24.801Z,28.83
2019-01-23T05:09:05.840Z,27.30
2019-01-23T05:11:47.011Z,26.93
2019-01-23T05:14:29.772Z,27.07
2019-01-23T05:17:11.734Z,26.00
2019-01-23T05:19:53.105Z,28.20
2019-01-23T05:22:34.101Z,26.00
2019-01-23T05:25:15.091Z,25.80
2019-01-23T05:27:56.335Z,27.27
2019-01-23T05:30:37.132Z,28.00
2019-01-23T05:33:17.758Z,28.57
2019-01-23T05:35:58.408Z,28.67
2019-01-23T05:38:38.990Z,27.47
2019-01-23T05:41:19.881Z,29.27
2019-01-23T05:43:48.430Z,31.50
2019-01-23T05:46:56.417Z,30.30
2019-01-23T05:49:44.611Z,28.73
2019-01-23T05:52:32.724Z,30.37
2019-01-23T05:55:20.653Z,28.90
2019-01-23T05:58:10.103Z,29.80
2019-01-23T06:01:19.184Z,29.73
2019-01-23T06:04:00.402Z,32.13
2019-01-23T06:06:41.081Z,31.83
2019-01-23T06:09:22.817Z,35.03
2019-01-23T06:12:03.614Z,34.20
2019-01-23T06:14:44.462Z,35.73
2019-01-23T06:17:25.292Z,32.40
2019-01-23T06:20:05.914Z,32.57
2019-01-23T06:22:47.015Z,32.57
2019-01-23T06:25:29.100Z,31.50
2019-01-23T06:28:11.532Z,33.00
2019-01-23T06:30:52.655Z,30.37
2019-01-23T06:33:32.916Z,27.77
2019-01-23T06:36:13.426Z,28.07
2019-01-23T06:38:54.414Z,28.77
2019-01-23T06:41:34.871Z,28.97
2019-01-23T06:44:16.122Z,29.43
2019-01-23T06:49:38.899Z,28.47
2019-01-23T06:52:20.382Z,31.17
2019-01-23T06:55:01.322Z,29.63
2019-01-23T06:57:42.193Z,29.67
2019-01-23T07:00:23.111Z,28.83
2019-01-23T07:03:03.403Z,29.50
2019-01-23T07:05:47.677Z,28.13
2019-01-23T07:08:29.075Z,29.93
2019-01-23T07:11:10.258Z,31.57
2019-01-23T07:16:40.550Z,31.57
2019-01-23T07:19:23.306Z,32.10
2019-01-23T07:22:03.767Z,29.47
2019-01-23T07:24:44.711Z,30.90
2019-01-23T07:27:25.877Z,29.63
2019-01-23T07:30:07.774Z,30.13
2019-01-23T07:32:48.479Z,30.80
2019-01-23T07:35:29.679Z,32.20
2019-01-23T07:38:10.474Z,32.83
2019-01-23T07:40:51.672Z,31.70
2019-01-23T07:43:33.031Z,31.63
2019-01-23T07:46:13.245Z,32.53
2019-01-23T07:51:36.607Z,36.60
2019-01-23T07:54:17.499Z,36.73
2019-01-23T07:56:58.043Z,38.83
2019-01-23T07:59:38.699Z,40.90
2019-01-23T08:02:19.837Z,37.37
2019-01-23T08:07:45.709Z,40.87
2019-01-23T08:10:26.925Z,35.37
2019-01-23T08:13:08.555Z,34.00
2019-01-23T08:15:49.480Z,34.47
2019-01-23T08:21:17.294Z,30.77
2019-01-23T08:26:42.201Z,33.33
2019-01-23T08:32:08.607Z,31.73
2019-01-23T08:34:49.791Z,31.57
2019-01-23T08:40:31.607Z,29.70
2019-01-23T08:43:19.386Z,28.47
2019-01-23T08:46:07.143Z,28.93
2019-01-23T08:52:09.250Z,31.17
2019-01-23T08:55:16.323Z,29.53
2019-01-23T08:58:05.329Z,29.10
2019-01-23T09:07:12.365Z,31.93
2019-01-23T09:10:00.255Z,30.73
2019-01-23T09:12:48.104Z,29.60
2019-01-23T09:15:36.448Z,31.23
2019-01-23T09:21:37.943Z,33.87
2019-01-23T09:24:26.134Z,30.00
2019-01-23T09:27:14.016Z,34.30
2019-01-23T09:30:01.969Z,34.73
2019-01-23T09:33:09.784Z,36.97
2019-01-23T09:35:59.426Z,36.07
2019-01-23T09:39:06.899Z,30.43
2019-01-23T09:42:14.033Z,29.07
2019-01-23T09:45:22.429Z,30.17
2019-01-23T09:48:29.946Z,32.73
2019-01-23T09:51:37.490Z,31.13
2019-01-23T09:57:20.726Z,30.67
2019-01-23T10:00:27.836Z,27.60
2019-01-23T10:03:35.192Z,29.37
2019-01-23T10:06:16.747Z,29.90
2019-01-23T10:08:57.333Z,29.57
2019-01-23T10:11:38.724Z,29.90
2019-01-23T10:14:19.546Z,30.23
2019-01-23T10:16:59.800Z,28.60
2019-01-23T10:19:41.626Z,34.17
2019-01-23T10:22:22.779Z,30.77
2019-01-23T10:25:04.008Z,30.20
2019-01-23T10:27:44.903Z,30.53
2019-01-23T10:30:28.043Z,33.10
2019-01-23T10:33:08.707Z,31.70
2019-01-23T10:35:51.917Z,30.47
2019-01-23T10:41:20.850Z,31.80
2019-01-23T10:44:04.886Z,30.53
2019-01-23T10:46:47.135Z,30.30
2019-01-23T10:49:29.013Z,30.47
2019-01-23T10:57:42.845Z,30.63
2019-01-23T11:03:17.482Z,29.93
2019-01-23T11:05:59.159Z,29.93
2019-01-23T11:08:39.789Z,31.80
2019-01-23T11:11:24.247Z,29.50
2019-01-23T11:14:05.056Z,28.73
2019-01-23T11:22:18.603Z,29.53
2019-01-23T11:25:00.977Z,31.43
2019-01-23T11:27:42.645Z,29.43
2019-01-23T11:30:24.879Z,30.53
2019-01-23T11:33:08.116Z,31.17
2019-01-23T11:35:50.131Z,31.00
2019-01-23T11:38:31.482Z,32.43
2019-01-23T11:44:04.882Z,34.30
2019-01-23T11:46:45.510Z,34.40
2019-01-23T11:49:27.000Z,32.17
2019-01-23T12:15:24.195Z,33.83
2019-01-23T12:23:50.939Z,34.80
2019-01-23T12:26:33.389Z,33.13
2019-01-23T12:34:54.598Z,34.20
2019-01-23T12:37:34.932Z,32.53
2019-01-23T12:40:15.628Z,32.50
2019-01-23T12:42:57.212Z,31.77
2019-01-23T12:45:39.175Z,33.40
2019-01-23T12:48:22.804Z,32.03
2019-01-23T12:51:04.556Z,31.93
2019-01-23T12:53:45.068Z,29.93
2019-01-23T13:02:13.707Z,33.17
2019-01-23T13:10:42.355Z,32.47
2019-01-23T13:16:19.640Z,31.47
2019-01-23T13:27:24.132Z,31.27
2019-01-23T13:42:04.759Z,32.00
2019-01-23T13:50:42.257Z,30.57
2019-01-23T13:56:27.442Z,29.37
2019-01-23T14:08:07.327Z,29.67
2019-01-23T14:10:49.075Z,32.00
2019-01-23T14:13:30.690Z,35.43
2019-01-23T14:16:13.168Z,33.83
2019-01-23T14:18:54.343Z,31.03
2019-01-23T14:21:39.198Z,32.00
2019-01-23T14:27:21.001Z,43.43
2019-01-23T14:32:50.924Z,53.17
2019-01-23T14:38:23.179Z,33.70
2019-01-23T14:49:47.202Z,28.10
2019-01-23T14:52:28.411Z,28.53
2019-01-23T14:55:08.974Z,28.50
2019-01-23T15:00:42.285Z,27.37
2019-01-23T15:03:23.237Z,27.80
2019-01-23T15:08:48.260Z,26.53
2019-01-23T15:11:28.516Z,27.17
2019-01-23T15:14:10.139Z,28.17
2019-01-23T15:19:40.599Z,27.53
2019-01-23T15:25:05.093Z,29.40
2019-01-23T15:27:45.396Z,27.67
2019-01-23T15:30:25.943Z,29.47
2019-01-23T15:33:06.776Z,28.83
2019-01-23T15:35:48.956Z,28.80
2019-01-23T15:38:30.241Z,30.07
2019-01-23T15:41:11.465Z,30.10
2019-01-23T15:43:52.621Z,29.37
2019-01-23T15:46:32.930Z,28.07
2019-01-23T15:49:14.555Z,29.80
2019-01-23T15:51:55.709Z,29.90
2019-01-23T15:54:36.150Z,27.93
2019-01-23T16:00:03.138Z,28.53
2019-01-23T16:08:29.238Z,29.60
2019-01-23T16:11:11.143Z,30.27
2019-01-23T16:13:52.314Z,28.97
2019-01-23T16:19:18.005Z,31.13
2019-01-23T16:24:43.971Z,30.53
2019-01-23T16:27:24.761Z,28.53
2019-01-23T16:30:07.638Z,30.07
2019-01-23T16:32:49.313Z,88.37
2019-01-23T16:35:29.770Z,34.60
2019-01-23T16:38:10.499Z,29.10
2019-01-23T16:40:54.194Z,30.73
2019-01-23T16:43:35.165Z,28.10
2019-01-23T16:49:06.100Z,29.50
2019-01-23T17:00:21.948Z,30.43
2019-01-23T17:08:43.280Z,28.53
2019-01-23T17:11:24.537Z,32.80
2019-01-23T17:16:50.129Z,27.67
2019-01-23T17:19:31.925Z,29.07
2019-01-23T17:24:56.984Z,28.57
2019-01-23T17:27:38.095Z,28.17
2019-01-23T17:30:20.321Z,28.87
2019-01-23T17:35:51.739Z,30.00
2019-01-23T17:38:32.484Z,30.93
2019-01-23T17:41:14.679Z,28.63
2019-01-23T17:46:44.618Z,27.63
2019-01-23T17:55:00.320Z,29.47
2019-01-23T18:03:33.474Z,29.33
2019-01-23T18:06:14.317Z,30.70
2019-01-23T18:08:55.439Z,28.83
2019-01-23T18:26:25.987Z,30.17
2019-01-23T18:31:55.919Z,30.43
2019-01-23T18:37:25.626Z,30.73
2019-01-23T18:40:06.297Z,26.97
2019-01-23T18:45:39.284Z,28.00
2019-01-23T18:48:19.943Z,27.97
2019-01-23T18:53:49.227Z,28.53
2019-01-23T18:59:26.186Z,25.60
2019-01-23T19:04:59.455Z,25.37
2019-01-23T19:07:40.486Z,24.00
2019-01-23T19:18:58.608Z,25.50
2019-01-23T19:21:39.194Z,25.83
2019-01-23T19:24:23.179Z,25.60
2019-01-23T19:32:59.005Z,24.13
2019-01-23T19:35:39.658Z,25.40
2019-01-23T19:38:20.474Z,25.80
2019-01-23T19:43:55.210Z,25.80
2019-01-23T19:46:35.776Z,24.30
2019-01-23T19:49:16.330Z,25.50
2019-01-23T20:03:26.491Z,25.57
2019-01-23T20:11:42.132Z,27.47
2019-01-23T20:14:23.010Z,25.57
2019-01-23T20:17:04.078Z,26.93
2019-01-23T20:19:44.606Z,27.00
2019-01-23T20:25:14.931Z,26.50
2019-01-23T20:27:56.026Z,27.70
2019-01-23T20:33:27.918Z,26.90
2019-01-23T20:36:05.994Z,29.23
2019-01-23T20:38:50.753Z,28.47
2019-01-23T20:44:20.954Z,33.80
2019-01-23T20:52:37.001Z,30.77
2019-01-23T20:55:17.465Z,29.17
2019-01-23T20:57:58.217Z,29.10
2019-01-23T21:06:25.019Z,28.77
2019-01-23T21:43:54.692Z,29.40
2019-01-23T21:52:31.129Z,31.73
2019-01-23T21:55:12.175Z,29.47
2019-01-23T22:00:36.587Z,30.77
2019-01-23T22:06:08.522Z,30.70
2019-01-23T22:08:49.569Z,33.10
2019-01-23T22:11:30.135Z,30.07
2019-01-23T22:16:56.998Z,29.70
2019-01-23T22:19:37.723Z,29.40
2019-01-23T22:25:10.279Z,29.27
2019-01-23T22:33:30.654Z,30.37
2019-01-23T22:42:03.782Z,30.73
2019-01-23T22:44:45.366Z,29.90
2019-01-23T22:47:25.922Z,29.47
2019-01-23T22:55:48.115Z,30.00
2019-01-23T23:01:18.090Z,30.20
2019-01-23T23:12:29.972Z,30.27
2019-01-23T23:15:11.624Z,28.57
2019-01-23T23:17:54.076Z,29.23
2019-01-23T23:20:34.748Z,30.17
2019-01-23T23:23:15.740Z,30.53
2019-01-23T23:25:56.100Z,30.20
2019-01-23T23:28:40.806Z,29.67
2019-01-23T23:34:12.389Z,30.67
2019-01-23T23:36:54.520Z,28.57
2019-01-23T23:45:23.356Z,30.30
2019-01-23T23:48:05.917Z,29.93
